Terminal Aerodrome Forecast
Issued by NWS

Home | Current Version | Previous Version | Graphics & Text | Print | Product List | Glossary On
Versions: 1 2 3 4 5 6 7 8 9 10 11 12 13 14 15 16 17 18 19 20 21 22 23 24 25 26 27 28 29 30 31 32 33 34 35 36 37 38 39 40
000
FTUS43 KGRB 081200 AAA
TAFRHI
TAF AMD
KRHI 081248Z 0813/0912 30005KT P6SM VCSH SCT009 OVC070
      TEMPO 0813/0815 BKN009 BKN025
     FM081500 30011KT P6SM VCSH SCT020 BKN060
     FM090100 30005KT P6SM SCT050 SCT100=

USA.gov is the U.S. government's official web portal to all federal, state and local government web resources and services.